createdAt,value
2018-05-31T00:00:20.580Z,1001.15
2018-05-31T00:01:01.079Z,1001.12
2018-05-31T00:01:41.606Z,1001.18
2018-05-31T00:02:22.140Z,1001.13
2018-05-31T00:03:02.661Z,1001.13
2018-05-31T00:03:43.189Z,1001.15
2018-05-31T00:04:23.713Z,1001.12
2018-05-31T00:05:04.247Z,1001.15
2018-05-31T00:05:44.780Z,1001.12
2018-05-31T00:06:25.308Z,1001.18
2018-05-31T00:07:05.843Z,1001.22
2018-05-31T00:07:46.344Z,1001.22
2018-05-31T00:08:26.873Z,1001.2
2018-05-31T00:09:07.395Z,1001.21
2018-05-31T00:09:47.903Z,1001.19
2018-05-31T00:10:28.417Z,1001.2
2018-05-31T00:11:08.949Z,1001.18
2018-05-31T00:11:49.469Z,1001.2
2018-05-31T00:12:29.989Z,1001.16
2018-05-31T00:13:10.520Z,1001.22
2018-05-31T00:13:51.051Z,1001.19
2018-05-31T00:14:31.576Z,1001.21
2018-05-31T00:15:12.114Z,1001.24
2018-05-31T00:15:52.646Z,1001.18
2018-05-31T00:16:33.194Z,1001.18
2018-05-31T00:17:13.720Z,1001.15
2018-05-31T00:17:54.255Z,1001.15
2018-05-31T00:18:34.795Z,1001.12
2018-05-31T00:19:15.322Z,1001.14
2018-05-31T00:19:55.848Z,1001.07
2018-05-31T00:20:36.373Z,1001.13
2018-05-31T00:21:16.909Z,1001.12
2018-05-31T00:21:57.426Z,1001.08
2018-05-31T00:22:37.936Z,1001.1
2018-05-31T00:23:18.457Z,1001.07
2018-05-31T00:23:59.047Z,1001.08
2018-05-31T00:24:39.571Z,1001.05
2018-05-31T00:25:20.104Z,1001.03
2018-05-31T00:26:00.625Z,1001.04
2018-05-31T00:26:41.161Z,1001.03
2018-05-31T00:27:21.847Z,1001.05
2018-05-31T00:28:02.370Z,1001.02
2018-05-31T00:28:42.879Z,1001.08
2018-05-31T00:29:23.400Z,1001.05
2018-05-31T00:30:03.915Z,1001.07
2018-05-31T00:30:44.532Z,1001.07
2018-05-31T00:31:25.041Z,1001.06
2018-05-31T00:32:05.563Z,1001.08
2018-05-31T00:32:46.079Z,1001.08
2018-05-31T00:33:26.572Z,1001.08
2018-05-31T00:34:07.089Z,1001.07
2018-05-31T00:34:47.613Z,1001.05
2018-05-31T00:35:28.142Z,1001.08
2018-05-31T00:36:08.655Z,1001.06
2018-05-31T00:36:49.169Z,1001.1
2018-05-31T00:37:29.705Z,1001.09
2018-05-31T00:38:10.220Z,1001.09
2018-05-31T00:38:50.726Z,1001.11
2018-05-31T00:39:31.258Z,1001.06
2018-05-31T00:40:11.773Z,1001.07
2018-05-31T00:40:52.288Z,1001.1
2018-05-31T00:41:32.804Z,1001.07
2018-05-31T00:42:13.314Z,1001.04
2018-05-31T00:42:53.829Z,1001.04
2018-05-31T00:43:34.328Z,1001
2018-05-31T00:44:14.859Z,1001.05
2018-05-31T00:44:55.362Z,1001.03
2018-05-31T00:45:35.870Z,1001.06
2018-05-31T00:46:16.396Z,1001.05
2018-05-31T00:46:56.907Z,1001.1
2018-05-31T00:47:37.450Z,1001.08
2018-05-31T00:48:17.964Z,1001.05
2018-05-31T00:48:58.458Z,1001.14
2018-05-31T00:49:38.962Z,1001.13
2018-05-31T00:50:19.472Z,1001.09
2018-05-31T00:50:59.989Z,1001.07
2018-05-31T00:51:40.513Z,1001.12
2018-05-31T00:52:21.045Z,1001.12
2018-05-31T00:53:01.553Z,1001.14
2018-05-31T00:53:42.067Z,1001.2
2018-05-31T00:54:22.601Z,1001.23
2018-05-31T00:55:03.120Z,1001.27
2018-05-31T00:55:43.656Z,1001.19
2018-05-31T00:56:24.166Z,1001.24
2018-05-31T00:57:04.700Z,1001.26
2018-05-31T00:57:45.222Z,1001.24
2018-05-31T00:58:25.762Z,1001.28
2018-05-31T00:59:06.278Z,1001.27
2018-05-31T00:59:46.800Z,1001.3
2018-05-31T01:00:27.326Z,1001.3
2018-05-31T01:01:07.850Z,1001.34
2018-05-31T01:01:48.368Z,1001.33
2018-05-31T01:02:28.898Z,1001.33
2018-05-31T01:03:09.435Z,1001.3
2018-05-31T01:03:49.934Z,1001.32
2018-05-31T01:04:30.463Z,1001.35
2018-05-31T01:05:10.984Z,1001.26
2018-05-31T01:05:51.501Z,1001.32
2018-05-31T01:06:32.023Z,1001.31
2018-05-31T01:07:12.559Z,1001.31
2018-05-31T01:07:53.081Z,1001.28
2018-05-31T01:08:33.609Z,1001.28
2018-05-31T01:09:14.126Z,1001.3
2018-05-31T01:09:54.661Z,1001.27
2018-05-31T01:10:35.187Z,1001.33
2018-05-31T01:11:15.681Z,1001.31
2018-05-31T01:11:56.206Z,1001.24
2018-05-31T01:12:36.724Z,1001.29
2018-05-31T01:13:17.254Z,1001.3
2018-05-31T01:13:57.857Z,1001.27
2018-05-31T01:14:38.361Z,1001.3
2018-05-31T01:15:18.891Z,1001.32
2018-05-31T01:15:59.420Z,1001.32
2018-05-31T01:16:39.947Z,1001.27
2018-05-31T01:17:20.473Z,1001.32
2018-05-31T01:18:00.997Z,1001.27
2018-05-31T01:18:41.525Z,1001.27
2018-05-31T01:19:22.092Z,1001.29
2018-05-31T01:20:02.580Z,1001.29
2018-05-31T01:20:43.102Z,1001.26
2018-05-31T01:21:23.603Z,1001.36
2018-05-31T01:22:04.122Z,1001.36
2018-05-31T01:22:44.644Z,1001.33
2018-05-31T01:23:25.169Z,1001.32
2018-05-31T01:24:05.699Z,1001.24
2018-05-31T01:24:46.220Z,1001.27
2018-05-31T01:25:26.739Z,1001.3
2018-05-31T01:26:07.257Z,1001.27
2018-05-31T01:26:47.794Z,1001.26
2018-05-31T01:27:28.322Z,1001.26
2018-05-31T01:28:08.838Z,1001.26
2018-05-31T01:28:49.377Z,1001.27
2018-05-31T01:29:29.938Z,1001.26
2018-05-31T01:30:10.420Z,1001.25
2018-05-31T01:30:50.936Z,1001.32
2018-05-31T01:31:31.456Z,1001.32
2018-05-31T01:32:11.958Z,1001.33
2018-05-31T01:32:52.489Z,1001.37
2018-05-31T01:33:33.021Z,1001.35
2018-05-31T01:34:13.543Z,1001.35
2018-05-31T01:34:54.063Z,1001.29
2018-05-31T01:35:34.595Z,1001.27
2018-05-31T01:36:15.112Z,1001.27
2018-05-31T01:36:55.640Z,1001.27
2018-05-31T01:37:36.157Z,1001.19
2018-05-31T01:38:16.677Z,1001.17
2018-05-31T01:38:57.198Z,1001.21
2018-05-31T01:39:37.740Z,1001.13
2018-05-31T01:40:18.265Z,1001.15
2018-05-31T01:40:58.792Z,1001.15
2018-05-31T01:41:39.301Z,1001.16
2018-05-31T01:42:19.837Z,1001.17
2018-05-31T01:43:00.367Z,1001.19
2018-05-31T01:43:40.891Z,1001.19
2018-05-31T01:44:21.405Z,1001.2
2018-05-31T01:45:01.935Z,1001.26
2018-05-31T01:45:42.449Z,1001.2
2018-05-31T01:46:22.963Z,1001.24
2018-05-31T01:47:03.497Z,1001.22
2018-05-31T01:47:44.009Z,1001.15
2018-05-31T01:48:24.536Z,1001.2
2018-05-31T01:49:05.042Z,1001.15
2018-05-31T01:49:45.564Z,1001.14
2018-05-31T01:50:26.091Z,1001.03
2018-05-31T01:51:06.620Z,1001.08
2018-05-31T01:51:47.141Z,1001.06
2018-05-31T01:52:27.670Z,1001.05
2018-05-31T01:53:08.189Z,1001.03
2018-05-31T01:53:48.706Z,1001.03
2018-05-31T01:54:29.249Z,1001.07
2018-05-31T01:55:09.752Z,1001.07
2018-05-31T01:55:50.269Z,1001.05
2018-05-31T01:56:30.799Z,1001.04
2018-05-31T01:57:11.333Z,1001.11
2018-05-31T01:57:51.825Z,1001.06
2018-05-31T01:58:32.345Z,1001.11
2018-05-31T01:59:12.879Z,1001.1
2018-05-31T01:59:53.404Z,1001.11
2018-05-31T02:00:33.924Z,1001.11
2018-05-31T02:01:14.448Z,1001.1
2018-05-31T02:01:54.972Z,1001.06
2018-05-31T02:02:35.495Z,1001.04
2018-05-31T02:03:16.015Z,1001.01
2018-05-31T02:03:56.530Z,1001.05
2018-05-31T02:04:37.137Z,1001.01
2018-05-31T02:05:17.646Z,1001.02
2018-05-31T02:05:58.152Z,1001.02
2018-05-31T02:06:38.760Z,1001.02
2018-05-31T02:07:19.222Z,1000.94
2018-05-31T02:07:59.764Z,1000.95
2018-05-31T02:08:40.275Z,1001
2018-05-31T02:09:20.773Z,1000.92
2018-05-31T02:10:01.285Z,1000.96
2018-05-31T02:10:41.801Z,1000.9
2018-05-31T02:11:22.325Z,1000.92
2018-05-31T02:12:02.844Z,1000.82
2018-05-31T02:12:43.362Z,1000.83
2018-05-31T02:13:23.877Z,1000.79
2018-05-31T02:14:04.410Z,1000.79
2018-05-31T02:14:44.947Z,1000.77
2018-05-31T02:15:25.467Z,1000.77
2018-05-31T02:16:05.991Z,1000.77
2018-05-31T02:16:46.508Z,1000.75
2018-05-31T02:17:27.028Z,1000.74
2018-05-31T02:18:07.537Z,1000.72
2018-05-31T02:18:48.051Z,1000.73
2018-05-31T02:19:28.560Z,1000.72
2018-05-31T02:20:09.085Z,1000.71
2018-05-31T02:20:49.596Z,1000.64
2018-05-31T02:21:30.110Z,1000.72
2018-05-31T02:22:10.617Z,1000.68
2018-05-31T02:22:51.130Z,1000.69
2018-05-31T02:23:31.617Z,1000.69
2018-05-31T02:24:12.165Z,1000.73
2018-05-31T02:24:52.660Z,1000.77
2018-05-31T02:25:33.163Z,1000.75
2018-05-31T02:26:13.663Z,1000.81
2018-05-31T02:26:54.167Z,1000.81
2018-05-31T02:27:34.795Z,1000.81
2018-05-31T02:28:15.411Z,1000.83
2018-05-31T02:28:55.881Z,1000.81
2018-05-31T02:29:36.309Z,1000.84
2018-05-31T02:30:16.809Z,1000.83
2018-05-31T02:30:57.329Z,1000.82
2018-05-31T02:31:37.835Z,1000.82
2018-05-31T02:32:18.342Z,1000.83
2018-05-31T02:32:58.805Z,1000.8
2018-05-31T02:33:39.318Z,1000.78
2018-05-31T02:34:19.829Z,1000.84
2018-05-31T02:35:00.305Z,1000.85
2018-05-31T02:35:40.828Z,1000.84
2018-05-31T02:36:21.266Z,1000.84
2018-05-31T02:37:01.770Z,1000.84
2018-05-31T02:37:42.260Z,1000.87
2018-05-31T02:38:22.771Z,1000.83
2018-05-31T02:39:03.231Z,1000.87
2018-05-31T02:39:43.757Z,1000.86
2018-05-31T02:40:24.246Z,1000.87
2018-05-31T02:41:04.707Z,1000.87
2018-05-31T02:41:45.213Z,1000.86
2018-05-31T02:42:25.731Z,1000.8
2018-05-31T02:43:06.237Z,1000.88
2018-05-31T02:43:46.767Z,1000.84
2018-05-31T02:44:27.343Z,1000.88
2018-05-31T02:45:07.846Z,1000.87
2018-05-31T02:45:48.311Z,1000.9
2018-05-31T02:46:28.819Z,1000.92
2018-05-31T02:47:09.335Z,1000.9
2018-05-31T02:47:49.851Z,1000.9
2018-05-31T02:48:30.370Z,1000.87
2018-05-31T02:49:10.899Z,1000.86
2018-05-31T02:49:51.415Z,1000.84
2018-05-31T02:50:31.934Z,1000.8
2018-05-31T02:51:12.461Z,1000.81
2018-05-31T02:51:52.984Z,1000.84
2018-05-31T02:52:33.494Z,1000.79
2018-05-31T02:53:14.031Z,1000.77
2018-05-31T02:53:54.537Z,1000.75
2018-05-31T02:54:35.051Z,1000.76
2018-05-31T02:55:15.560Z,1000.8
2018-05-31T02:55:56.081Z,1000.74
2018-05-31T02:56:36.600Z,1000.82
2018-05-31T02:57:17.122Z,1000.72
2018-05-31T02:57:57.634Z,1000.76
2018-05-31T02:58:38.160Z,1000.7
2018-05-31T02:59:18.674Z,1000.69
2018-05-31T02:59:59.189Z,1000.68
2018-05-31T03:00:39.695Z,1000.67
2018-05-31T03:01:20.232Z,1000.68
2018-05-31T03:02:00.744Z,1000.66
2018-05-31T03:02:41.256Z,1000.73
2018-05-31T03:03:21.774Z,1000.66
2018-05-31T03:04:02.303Z,1000.72
2018-05-31T03:04:42.798Z,1000.74
2018-05-31T03:05:23.325Z,1000.74
2018-05-31T03:06:03.854Z,1000.73
2018-05-31T03:06:44.382Z,1000.71
2018-05-31T03:07:24.913Z,1000.74
2018-05-31T03:08:05.415Z,1000.71
2018-05-31T03:08:45.930Z,1000.63
2018-05-31T03:09:26.440Z,1000.59
2018-05-31T03:10:06.976Z,1000.56
2018-05-31T03:10:47.505Z,1000.53
2018-05-31T03:11:28.058Z,1000.51
2018-05-31T03:12:08.576Z,1000.51
2018-05-31T03:12:49.097Z,1000.52
2018-05-31T03:13:29.583Z,1000.53
2018-05-31T03:14:10.093Z,1000.57
2018-05-31T03:14:50.628Z,1000.58
2018-05-31T03:15:31.143Z,1000.55
2018-05-31T03:16:11.654Z,1000.58
2018-05-31T03:16:52.180Z,1000.56
2018-05-31T03:17:32.707Z,1000.6
2018-05-31T03:18:13.233Z,1000.6
2018-05-31T03:18:53.774Z,1000.59
2018-05-31T03:19:34.291Z,1000.58
2018-05-31T03:20:14.821Z,1000.58
2018-05-31T03:20:55.339Z,1000.57
2018-05-31T03:21:35.826Z,1000.57
2018-05-31T03:22:16.337Z,1000.53
2018-05-31T03:22:56.839Z,1000.57
2018-05-31T03:23:37.363Z,1000.53
2018-05-31T03:24:17.900Z,1000.52
2018-05-31T03:24:58.440Z,1000.52
2018-05-31T03:25:38.971Z,1000.58
2018-05-31T03:26:19.493Z,1000.53
2018-05-31T03:26:59.987Z,1000.55
2018-05-31T03:27:40.486Z,1000.53
2018-05-31T03:28:21.007Z,1000.59
2018-05-31T03:29:01.518Z,1000.6
2018-05-31T03:29:42.029Z,1000.57
2018-05-31T03:30:22.540Z,1000.59
2018-05-31T03:31:03.069Z,1000.6
2018-05-31T03:31:43.579Z,1000.59
2018-05-31T03:32:24.085Z,1000.56
2018-05-31T03:33:04.628Z,1000.6
2018-05-31T03:33:45.142Z,1000.61
2018-05-31T03:34:25.651Z,1000.59
2018-05-31T03:35:06.143Z,1000.59
2018-05-31T03:35:46.654Z,1000.64
2018-05-31T03:36:27.130Z,1000.61
2018-05-31T03:37:07.630Z,1000.63
2018-05-31T03:37:48.136Z,1000.59
2018-05-31T03:38:28.656Z,1000.66
2018-05-31T03:39:09.181Z,1000.67
2018-05-31T03:39:49.707Z,1000.63
2018-05-31T03:40:30.214Z,1000.61
2018-05-31T03:41:10.742Z,1000.64
2018-05-31T03:41:51.268Z,1000.59
2018-05-31T03:42:31.787Z,1000.63
2018-05-31T03:43:12.311Z,1000.63
2018-05-31T03:43:52.836Z,1000.61
2018-05-31T03:44:33.369Z,1000.61
2018-05-31T03:45:13.895Z,1000.63
2018-05-31T03:45:54.412Z,1000.64
2018-05-31T03:46:34.928Z,1000.61
2018-05-31T03:47:15.449Z,1000.61
2018-05-31T03:47:55.971Z,1000.62
2018-05-31T03:48:36.492Z,1000.62
2018-05-31T03:49:17.021Z,1000.59
2018-05-31T03:49:57.524Z,1000.64
2018-05-31T03:50:38.059Z,1000.58
2018-05-31T03:51:18.581Z,1000.64
2018-05-31T03:51:59.116Z,1000.63
2018-05-31T03:52:39.639Z,1000.69
2018-05-31T03:53:20.159Z,1000.66
2018-05-31T03:54:00.894Z,1000.65
2018-05-31T03:54:41.219Z,1000.69
2018-05-31T03:55:21.727Z,1000.65
2018-05-31T03:56:02.246Z,1000.62
2018-05-31T03:56:42.766Z,1000.61
2018-05-31T03:57:23.268Z,1000.6
2018-05-31T03:58:03.782Z,1000.58
2018-05-31T03:58:44.325Z,1000.6
2018-05-31T03:59:24.840Z,1000.57
2018-05-31T04:00:05.358Z,1000.56
2018-05-31T04:00:45.894Z,1000.6
2018-05-31T04:01:26.423Z,1000.54
2018-05-31T04:02:06.940Z,1000.58
2018-05-31T04:02:47.450Z,1000.55
2018-05-31T04:03:27.963Z,1000.56
2018-05-31T04:04:08.482Z,1000.58
2018-05-31T04:04:49.014Z,1000.54
2018-05-31T04:05:29.538Z,1000.55
2018-05-31T04:06:10.075Z,1000.56
2018-05-31T04:06:50.593Z,1000.65
2018-05-31T04:07:31.118Z,1000.62
2018-05-31T04:08:11.652Z,1000.56
2018-05-31T04:08:52.168Z,1000.63
2018-05-31T04:09:32.693Z,1000.63
2018-05-31T04:10:13.232Z,1000.64
2018-05-31T04:10:53.746Z,1000.65
2018-05-31T04:11:34.266Z,1000.68
2018-05-31T04:12:14.786Z,1000.68
2018-05-31T04:12:55.310Z,1000.72
2018-05-31T04:13:35.830Z,1000.67
2018-05-31T04:14:16.384Z,1000.66
2018-05-31T04:14:56.904Z,1000.68
2018-05-31T04:15:37.430Z,1000.69
2018-05-31T04:16:17.974Z,1000.71
2018-05-31T04:16:58.474Z,1000.69
2018-05-31T04:17:38.991Z,1000.75
2018-05-31T04:18:19.507Z,1000.69
2018-05-31T04:19:00.023Z,1000.72
2018-05-31T04:19:40.528Z,1000.73
2018-05-31T04:20:21.051Z,1000.73
2018-05-31T04:21:01.552Z,1000.72
2018-05-31T04:21:42.054Z,1000.74
2018-05-31T04:22:22.564Z,1000.76
2018-05-31T04:23:03.092Z,1000.74
2018-05-31T04:23:43.594Z,1000.75
2018-05-31T04:24:24.112Z,1000.74
2018-05-31T04:25:04.644Z,1000.77
2018-05-31T04:25:45.132Z,1000.76
2018-05-31T04:26:25.655Z,1000.79
2018-05-31T04:27:06.146Z,1000.82
2018-05-31T04:27:46.606Z,1000.86
2018-05-31T04:28:27.106Z,1000.84
2018-05-31T04:29:07.600Z,1000.88
2018-05-31T04:29:48.129Z,1000.91
2018-05-31T04:30:28.642Z,1000.94
2018-05-31T04:31:09.180Z,1000.92
2018-05-31T04:31:49.661Z,1000.94
2018-05-31T04:32:30.194Z,1000.96
2018-05-31T04:33:10.724Z,1001
2018-05-31T04:33:51.239Z,1000.94
2018-05-31T04:34:31.761Z,1000.96
2018-05-31T04:35:12.281Z,1000.89
2018-05-31T04:35:52.800Z,1000.9
2018-05-31T04:36:33.322Z,1000.92
2018-05-31T04:37:13.821Z,1000.88
2018-05-31T04:37:54.311Z,1000.86
2018-05-31T04:38:34.958Z,1000.86
2018-05-31T04:39:15.360Z,1000.9
2018-05-31T04:39:55.840Z,1000.89
2018-05-31T04:40:36.373Z,1000.93
2018-05-31T04:41:16.854Z,1000.89
2018-05-31T04:41:57.397Z,1000.91
2018-05-31T04:42:37.861Z,1000.97
2018-05-31T04:43:18.385Z,1000.99
2018-05-31T04:43:58.910Z,1000.96
2018-05-31T04:44:39.414Z,1000.98
2018-05-31T04:45:19.937Z,1000.94
2018-05-31T04:46:00.762Z,1000.93
2018-05-31T04:46:41.241Z,1000.94
2018-05-31T04:47:21.768Z,1000.98
2018-05-31T04:48:02.286Z,1000.98
2018-05-31T04:48:42.812Z,1000.98
2018-05-31T04:49:23.347Z,1000.97
2018-05-31T04:50:03.880Z,1001
2018-05-31T04:50:44.453Z,1000.97
2018-05-31T04:51:25.010Z,1001
2018-05-31T04:52:05.479Z,1001.04
2018-05-31T04:52:45.977Z,1000.93
2018-05-31T04:53:26.492Z,1000.96
2018-05-31T04:54:07.015Z,1000.95
2018-05-31T04:54:47.561Z,1000.92
2018-05-31T04:55:28.033Z,1000.95
2018-05-31T04:56:08.514Z,1000.94
2018-05-31T04:56:49.022Z,1001
2018-05-31T04:57:29.539Z,1000.96
2018-05-31T04:58:10.051Z,1001.01
2018-05-31T04:58:50.562Z,1001.01
2018-05-31T04:59:31.079Z,1001.02
2018-05-31T05:00:11.830Z,1000.98
2018-05-31T05:00:52.318Z,1001.04
2018-05-31T05:01:32.814Z,1001.05
2018-05-31T05:02:13.286Z,1001.06
2018-05-31T05:02:53.767Z,1001.04
2018-05-31T05:03:34.262Z,1001.06
2018-05-31T05:04:14.781Z,1001.04
2018-05-31T05:04:55.257Z,1001.02
2018-05-31T05:05:35.791Z,1001.03
2018-05-31T05:06:16.268Z,1001.04
2018-05-31T05:06:56.812Z,1001.03
2018-05-31T05:07:37.260Z,1001.12
2018-05-31T05:08:17.768Z,1001.06
2018-05-31T05:08:58.303Z,1001.02
2018-05-31T05:09:38.790Z,1001.03
2018-05-31T05:10:19.295Z,1000.99
2018-05-31T05:10:59.821Z,1001.03
2018-05-31T05:11:40.318Z,1001.03
2018-05-31T05:12:20.836Z,1001.06
2018-05-31T05:13:01.336Z,1001.01
2018-05-31T05:13:41.841Z,1001.05
2018-05-31T05:14:22.384Z,1001.03
2018-05-31T05:15:02.840Z,1001.06
2018-05-31T05:15:43.374Z,1001.13
2018-05-31T05:16:23.887Z,1001.09
2018-05-31T05:17:04.407Z,1001.15
2018-05-31T05:17:44.932Z,1001.13
2018-05-31T05:18:25.451Z,1001.14
2018-05-31T05:19:05.977Z,1001.13
2018-05-31T05:19:46.475Z,1001.16
2018-05-31T05:20:26.962Z,1001.18
2018-05-31T05:21:07.484Z,1001.17
2018-05-31T05:21:47.958Z,1001.2
2018-05-31T05:22:28.476Z,1001.2
2018-05-31T05:23:08.989Z,1001.23
2018-05-31T05:23:49.503Z,1001.22
2018-05-31T05:24:30.048Z,1001.19
2018-05-31T05:25:10.580Z,1001.24
2018-05-31T05:25:51.098Z,1001.18
2018-05-31T05:26:31.653Z,1001.2
2018-05-31T05:27:12.116Z,1001.17
2018-05-31T05:27:52.586Z,1001.17
2018-05-31T05:28:33.073Z,1001.17
2018-05-31T05:29:13.738Z,1001.18
2018-05-31T05:29:54.247Z,1001.19
2018-05-31T05:30:34.774Z,1001.17
2018-05-31T05:31:15.279Z,1001.15
2018-05-31T05:31:55.773Z,1001.21
2018-05-31T05:32:36.295Z,1001.2
2018-05-31T05:33:16.869Z,1001.22
2018-05-31T05:33:57.356Z,1001.23
2018-05-31T05:34:37.829Z,1001.25
2018-05-31T05:35:18.345Z,1001.23
2018-05-31T05:35:58.881Z,1001.28
2018-05-31T05:36:39.408Z,1001.26
2018-05-31T05:37:19.887Z,1001.29
2018-05-31T05:38:00.384Z,1001.25
2018-05-31T05:38:40.893Z,1001.3
2018-05-31T05:39:21.410Z,1001.26
2018-05-31T05:40:01.910Z,1001.29
2018-05-31T05:40:42.429Z,1001.33
2018-05-31T05:41:22.938Z,1001.3
2018-05-31T05:42:03.428Z,1001.34
2018-05-31T05:42:43.928Z,1001.34
2018-05-31T05:43:24.451Z,1001.29
2018-05-31T05:44:04.980Z,1001.36
2018-05-31T05:44:45.453Z,1001.33
2018-05-31T05:45:25.997Z,1001.37
2018-05-31T05:46:06.461Z,1001.39
2018-05-31T05:46:46.946Z,1001.38
2018-05-31T05:47:27.547Z,1001.36
2018-05-31T05:48:08.070Z,1001.37
2018-05-31T05:48:48.567Z,1001.44
2018-05-31T05:49:29.082Z,1001.46
2018-05-31T05:50:09.642Z,1001.42
2018-05-31T05:50:50.124Z,1001.44
2018-05-31T05:51:30.654Z,1001.46
2018-05-31T05:52:11.150Z,1001.43
2018-05-31T05:52:51.723Z,1001.44
2018-05-31T05:53:32.220Z,1001.44
2018-05-31T05:54:12.765Z,1001.48
2018-05-31T05:54:53.278Z,1001.45
2018-05-31T05:55:33.799Z,1001.49
2018-05-31T05:56:14.412Z,1001.47
2018-05-31T05:56:54.922Z,1001.51
2018-05-31T05:57:35.448Z,1001.5
2018-05-31T05:58:15.951Z,1001.46
2018-05-31T05:58:56.469Z,1001.46
2018-05-31T05:59:36.980Z,1001.49
2018-05-31T06:00:17.506Z,1001.52
2018-05-31T06:00:58.006Z,1001.53
2018-05-31T06:01:38.619Z,1001.48
2018-05-31T06:02:19.122Z,1001.5
2018-05-31T06:02:59.654Z,1001.54
2018-05-31T06:03:40.199Z,1001.52
2018-05-31T06:04:20.721Z,1001.48
2018-05-31T06:05:01.226Z,1001.5
2018-05-31T06:05:41.703Z,1001.5
2018-05-31T06:06:22.177Z,1001.5
2018-05-31T06:07:02.714Z,1001.53
2018-05-31T06:07:43.208Z,1001.48
2018-05-31T06:08:23.718Z,1001.53
2018-05-31T06:09:04.838Z,1001.53
2018-05-31T06:09:44.710Z,1001.52
2018-05-31T06:10:25.764Z,1001.53
2018-05-31T06:11:06.320Z,1001.55
2018-05-31T06:11:46.899Z,1001.58
2018-05-31T06:12:27.410Z,1001.62
2018-05-31T06:13:07.874Z,1001.62
2018-05-31T06:13:48.386Z,1001.64
2018-05-31T06:14:28.884Z,1001.66
2018-05-31T06:15:09.398Z,1001.61
2018-05-31T06:15:49.921Z,1001.64
2018-05-31T06:16:30.419Z,1001.68
2018-05-31T06:17:11.195Z,1001.66
2018-05-31T06:17:51.445Z,1001.72
2018-05-31T06:18:31.925Z,1001.7
2018-05-31T06:19:12.458Z,1001.67
2018-05-31T06:19:53.041Z,1001.72
2018-05-31T06:20:33.425Z,1001.67
2018-05-31T06:21:14.026Z,1001.69
2018-05-31T06:21:54.456Z,1001.71
2018-05-31T06:22:34.951Z,1001.68
2018-05-31T06:23:15.606Z,1001.69
2018-05-31T06:23:56.179Z,1001.69
2018-05-31T06:24:36.866Z,1001.69
2018-05-31T06:25:17.276Z,1001.67
2018-05-31T06:25:57.746Z,1001.69
2018-05-31T06:26:38.248Z,1001.7
2018-05-31T06:27:18.979Z,1001.68
2018-05-31T06:27:59.429Z,1001.69
2018-05-31T06:28:39.974Z,1001.73
2018-05-31T06:29:20.412Z,1001.74
2018-05-31T06:30:01.014Z,1001.77
2018-05-31T06:30:41.492Z,1001.77
2018-05-31T06:31:22.205Z,1001.8
2018-05-31T06:32:02.668Z,1001.8
2018-05-31T06:32:43.094Z,1001.8
2018-05-31T06:33:23.566Z,1001.78
2018-05-31T06:34:04.060Z,1001.79
2018-05-31T06:34:44.557Z,1001.77
2018-05-31T06:35:25.074Z,1001.81
2018-05-31T06:36:05.520Z,1001.79
2018-05-31T06:36:46.033Z,1001.81
2018-05-31T06:37:26.614Z,1001.83
2018-05-31T06:38:07.044Z,1001.81
2018-05-31T06:38:47.609Z,1001.81
2018-05-31T06:39:28.075Z,1001.82
2018-05-31T06:40:08.595Z,1001.83
2018-05-31T06:40:49.129Z,1001.82
2018-05-31T06:41:29.666Z,1001.76
2018-05-31T06:42:10.171Z,1001.8
2018-05-31T06:42:50.681Z,1001.76
2018-05-31T06:43:31.190Z,1001.78
2018-05-31T06:44:11.721Z,1001.77
2018-05-31T06:44:52.327Z,1001.79
2018-05-31T06:45:32.774Z,1001.82
2018-05-31T06:46:13.282Z,1001.75
2018-05-31T06:46:53.854Z,1001.79
2018-05-31T06:47:34.407Z,1001.82
2018-05-31T06:48:14.802Z,1001.82
2018-05-31T06:48:55.364Z,1001.79
2018-05-31T06:49:35.807Z,1001.82
2018-05-31T06:50:16.321Z,1001.84
2018-05-31T06:50:56.811Z,1001.82
2018-05-31T06:51:37.300Z,1001.83
2018-05-31T06:52:18.197Z,1001.8
2018-05-31T06:52:58.708Z,1001.8
2018-05-31T06:53:39.217Z,1001.82
2018-05-31T06:54:19.719Z,1001.82
2018-05-31T06:55:00.247Z,1001.82
2018-05-31T06:55:40.714Z,1001.8
2018-05-31T06:56:21.232Z,1001.8
2018-05-31T06:57:01.736Z,1001.78
2018-05-31T06:57:42.445Z,1001.8
2018-05-31T06:58:22.989Z,1001.78
2018-05-31T06:59:03.504Z,1001.8
2018-05-31T06:59:43.997Z,1001.8
2018-05-31T07:00:24.521Z,1001.83
2018-05-31T07:01:05.000Z,1001.83
2018-05-31T07:01:45.533Z,1001.84
2018-05-31T07:02:26.031Z,1001.84
2018-05-31T07:03:06.603Z,1001.85
2018-05-31T07:03:47.094Z,1001.87
2018-05-31T07:04:27.574Z,1001.85
2018-05-31T07:05:08.094Z,1001.84
2018-05-31T07:05:48.556Z,1001.85
2018-05-31T07:06:29.119Z,1001.83
2018-05-31T07:07:09.605Z,1001.86
2018-05-31T07:07:50.117Z,1001.8
2018-05-31T07:08:30.640Z,1001.82
2018-05-31T07:09:11.167Z,1001.81
2018-05-31T07:09:51.700Z,1001.82
2018-05-31T07:10:32.220Z,1001.84
2018-05-31T07:11:12.730Z,1001.81
2018-05-31T07:11:53.236Z,1001.87
2018-05-31T07:12:33.715Z,1001.83
2018-05-31T07:13:14.248Z,1001.85
2018-05-31T07:13:54.786Z,1001.83
2018-05-31T07:14:35.318Z,1001.85
2018-05-31T07:15:15.834Z,1001.85
2018-05-31T07:15:56.617Z,1001.82
2018-05-31T07:16:36.933Z,1001.79
2018-05-31T07:17:17.440Z,1001.81
2018-05-31T07:17:57.973Z,1001.81
2018-05-31T07:18:38.675Z,1001.76
2018-05-31T07:19:19.185Z,1001.76
2018-05-31T07:19:59.717Z,1001.76
2018-05-31T07:20:40.241Z,1001.81
2018-05-31T07:21:20.767Z,1001.77
2018-05-31T07:22:01.285Z,1001.78
2018-05-31T07:22:41.788Z,1001.81
2018-05-31T07:23:22.269Z,1001.83
2018-05-31T07:24:02.978Z,1001.83
2018-05-31T07:24:43.312Z,1001.84
2018-05-31T07:25:23.943Z,1001.8
2018-05-31T07:26:04.475Z,1001.83
2018-05-31T07:26:44.959Z,1001.89
2018-05-31T07:27:25.493Z,1001.9
2018-05-31T07:28:05.995Z,1001.89
2018-05-31T07:28:46.546Z,1001.88
2018-05-31T07:29:27.105Z,1001.85
2018-05-31T07:30:07.672Z,1001.88
2018-05-31T07:30:48.194Z,1001.91
2018-05-31T07:31:28.737Z,1001.91
2018-05-31T07:32:09.272Z,1001.89
2018-05-31T07:32:49.781Z,1001.86
2018-05-31T07:33:30.325Z,1001.88
2018-05-31T07:34:10.848Z,1001.85
2018-05-31T07:34:51.877Z,1001.9
2018-05-31T07:35:32.291Z,1001.92
2018-05-31T07:36:12.833Z,1001.91
2018-05-31T07:36:53.359Z,1001.96
2018-05-31T07:37:33.866Z,1001.93
2018-05-31T07:38:14.394Z,1001.92
2018-05-31T07:38:54.888Z,1001.95
2018-05-31T07:39:35.386Z,1001.97
2018-05-31T07:40:15.925Z,1001.94
2018-05-31T07:40:56.555Z,1001.94
2018-05-31T07:41:37.098Z,1001.94
2018-05-31T07:42:17.629Z,1001.94
2018-05-31T07:42:58.271Z,1001.96
2018-05-31T07:43:38.770Z,1001.93
2018-05-31T07:44:19.329Z,1001.99
2018-05-31T07:44:59.792Z,1001.96
2018-05-31T07:45:40.316Z,1001.92
2018-05-31T07:46:20.892Z,1001.91
2018-05-31T07:47:01.395Z,1001.9
2018-05-31T07:47:41.921Z,1001.89
2018-05-31T07:48:22.431Z,1001.89
2018-05-31T07:49:02.944Z,1001.92
2018-05-31T07:49:43.462Z,1001.9
2018-05-31T07:50:23.998Z,1001.88
2018-05-31T07:51:04.520Z,1001.91
2018-05-31T07:51:45.051Z,1001.89
2018-05-31T07:52:25.552Z,1001.86
2018-05-31T07:53:06.087Z,1001.9
2018-05-31T07:53:46.598Z,1001.88
2018-05-31T07:54:27.106Z,1001.89
2018-05-31T07:55:07.624Z,1001.92
2018-05-31T07:55:48.137Z,1001.91
2018-05-31T07:56:28.675Z,1001.94
2018-05-31T07:57:09.186Z,1001.92
2018-05-31T07:57:49.751Z,1001.91
2018-05-31T07:58:30.251Z,1001.95
2018-05-31T07:59:10.771Z,1001.98
2018-05-31T07:59:51.285Z,1002
2018-05-31T08:00:31.807Z,1002
2018-05-31T08:01:12.338Z,1002
2018-05-31T08:01:52.866Z,1002.02
2018-05-31T08:02:33.390Z,1002.03
2018-05-31T08:03:13.908Z,1002.01
2018-05-31T08:03:54.439Z,1001.96
2018-05-31T08:04:34.965Z,1001.98
2018-05-31T08:05:15.495Z,1001.99
2018-05-31T08:05:56.081Z,1001.99
2018-05-31T08:06:36.554Z,1001.98
2018-05-31T08:07:17.072Z,1002.02
2018-05-31T08:07:57.595Z,1002.02
2018-05-31T08:08:38.149Z,1002.02
2018-05-31T08:09:18.691Z,1002.07
2018-05-31T08:09:59.226Z,1002.05
2018-05-31T08:10:39.751Z,1002.07
2018-05-31T08:11:20.323Z,1002.03
2018-05-31T08:12:00.855Z,1002.07